Time;durP1;ratioP1;P1;durP2;ratioP2;P2;SDS_P1;SDS_P2;PMS_P1;PMS_P2;Temp;Humidity;BMP_temperature;BMP_pressure;BME280_temperature;BME280_humidity;BME280_pressure;Samples;Min_cycle;Max_cycle;Signal;HPM_P1;HPM_P2
2022/05/28 00:00:53;;;;;;;;;;;;;;;;;;5096987;28;19912;-32
2022/05/28 00:03:19;;;;;;;;;;;;;;;;;;5096906;28;19912;-32
2022/05/28 00:05:45;;;;;;;;;;;;;;;;;;5097121;28;19916;-30
2022/05/28 00:08:11;;;;;;;;;;;;;;;;;;5097409;28;20019;-32
2022/05/28 00:10:37;;;;;;;;;;;;;;;;;;5096810;28;20342;-31
2022/05/28 00:13:03;;;;;;;;;;;;;;;;;;5097018;28;19916;-31
2022/05/28 00:15:29;;;;;;;;;;;;;;;;;;5097275;28;19913;-31
2022/05/28 00:17:55;;;;;;;;;;;;;;;;;;5096652;28;19908;-30
2022/05/28 00:20:21;;;;;;;;;;;;;;;;;;5096640;28;19956;-32
2022/05/28 00:22:47;;;;;;;;;;;;;;;;;;5096531;28;19958;-30
2022/05/28 00:25:13;;;;;;;;;;;;;;;;;;5096468;28;19912;-30
2022/05/28 00:27:39;;;;;;;;;;;;;;;;;;5096815;28;19908;-31
2022/05/28 00:30:05;;;;;;;;;;;;;;;;;;5096516;28;19912;-29
2022/05/28 00:32:31;;;;;;;;;;;;;;;;;;5096865;28;19912;-30
2022/05/28 00:34:57;;;;;;;;;;;;;;;;;;5096947;28;20058;-29
2022/05/28 00:37:23;;;;;;;;;;;;;;;;;;5095312;28;19912;-33
2022/05/28 00:39:49;;;;;;;;;;;;;;;;;;5096305;28;20007;-30
2022/05/28 00:42:15;;;;;;;;;;;;;;;;;;5096394;28;19912;-29
2022/05/28 00:44:41;;;;;;;;;;;;;;;;;;5096014;28;19914;-31
2022/05/28 00:47:07;;;;;;;;;;;;;;;;;;5096067;28;20309;-29
2022/05/28 00:49:33;;;;;;;;;;;;;;;;;;5096322;28;19944;-30
2022/05/28 00:51:59;;;;;;;;;;;;;;;;;;5096293;28;19916;-30
2022/05/28 00:54:25;;;;;;;;;;;;;;;;;;5095970;28;19912;-30
2022/05/28 00:56:51;;;;;;;;;;;;;;;;;;5096532;28;19908;-29
2022/05/28 00:59:17;;;;;;;;;;;;;;;;;;5095906;28;19919;-30
2022/05/28 01:01:43;;;;;;;;;;;;;;;;;;5094829;28;19908;-30
2022/05/28 01:04:09;;;;;;;;;;;;;;;;;;5095916;28;19934;-31
2022/05/28 01:06:35;;;;;;;;;;;;;;;;;;5095721;28;19916;-30
2022/05/28 01:09:01;;;;;;;;;;;;;;;;;;5096028;28;19991;-30
2022/05/28 01:11:27;;;;;;;;;;;;;;;;;;5096006;28;20028;-32
2022/05/28 01:13:54;;;;;;;;;;;;;;;;;;5095630;28;19912;-32
2022/05/28 01:16:20;;;;;;;;;;;;;;;;;;5095221;28;19912;-28
2022/05/28 01:18:46;;;;;;;;;;;;;;;;;;5095597;28;19909;-29
2022/05/28 01:21:13;;;;;;;;;;;;;;;;;;5096077;28;19916;-31
2022/05/28 01:23:39;;;;;;;;;;;;;;;;;;5096056;28;19908;-32
2022/05/28 01:26:05;;;;;;;;;;;;;;;;;;5095421;28;19916;-29
2022/05/28 01:28:31;;;;;;;;;;;;;;;;;;5095721;28;19912;-29
2022/05/28 01:30:57;;;;;;;;;;;;;;;;;;5094435;28;19917;-31
2022/05/28 01:33:24;;;;;;;;;;;;;;;;;;5095327;28;19916;-33
2022/05/28 01:35:50;;;;;;;;;;;;;;;;;;5095887;28;19946;-32
2022/05/28 01:38:16;;;;;;;;;;;;;;;;;;5095272;28;19973;-29
2022/05/28 01:40:42;;;;;;;;;;;;;;;;;;5095250;28;20299;-29
2022/05/28 01:43:08;;;;;;;;;;;;;;;;;;5095485;28;19908;-31
2022/05/28 01:45:34;;;;;;;;;;;;;;;;;;5095632;28;19920;-32
2022/05/28 01:48:00;;;;;;;;;;;;;;;;;;5095477;28;19919;-32
2022/05/28 01:50:27;;;;;;;;;;;;;;;;;;5095730;28;20388;-31
2022/05/28 01:52:53;;;;;;;;;;;;;;;;;;5095210;28;19912;-30
2022/05/28 01:55:19;;;;;;;;;;;;;;;;;;5095152;28;19912;-29
2022/05/28 01:57:45;;;;;;;;;;;;;;;;;;5095134;28;20259;-30
2022/05/28 02:00:11;;;;;;;;;;;;;;;;;;5095424;28;19912;-32
2022/05/28 02:02:37;;;;;;;;;;;;;;;;;;5094986;28;19913;-31
2022/05/28 02:05:03;;;;;;;;;;;;;;;;;;5095057;28;19912;-30
2022/05/28 02:07:29;;;;;;;;;;;;;;;;;;5095003;28;19912;-29
2022/05/28 02:09:55;;;;;;;;;;;;;;;;;;5095544;28;19916;-30
2022/05/28 02:12:21;;;;;;;;;;;;;;;;;;5095230;28;19912;-30
2022/05/28 02:14:47;;;;;;;;;;;;;;;;;;5095209;28;19918;-30
2022/05/28 02:17:13;;;;;;;;;;;;;;;;;;5094943;28;20007;-28
2022/05/28 02:19:39;;;;;;;;;;;;;;;;;;5094833;28;20390;-30
2022/05/28 02:22:05;;;;;;;;;;;;;;;;;;5095103;28;19959;-30
2022/05/28 02:24:31;;;;;;;;;;;;;;;;;;5094886;28;19913;-29
2022/05/28 02:26:57;;;;;;;;;;;;;;;;;;5094812;28;19912;-31
2022/05/28 02:29:23;;;;;;;;;;;;;;;;;;5097922;28;19916;-30
2022/05/28 02:31:49;;;;;;;;;;;;;;;;;;5098693;28;20380;-30
2022/05/28 02:34:15;;;;;;;;;;;;;;;;;;5098713;28;19965;-32
2022/05/28 02:36:41;;;;;;;;;;;;;;;;;;5098667;28;20304;-29
2022/05/28 02:39:07;;;;;;;;;;;;;;;;;;5098630;28;19923;-31
2022/05/28 02:41:33;;;;;;;;;;;;;;;;;;5098545;28;20354;-33
2022/05/28 02:43:59;;;;;;;;;;;;;;;;;;5098436;28;19913;-31
2022/05/28 02:46:25;;;;;;;;;;;;;;;;;;5098312;28;19920;-31
2022/05/28 02:48:51;;;;;;;;;;;;;;;;;;5098499;28;20415;-31
2022/05/28 02:51:17;;;;;;;;;;;;;;;;;;5098388;28;20350;-29
2022/05/28 02:53:43;;;;;;;;;;;;;;;;;;5098510;28;19999;-29
2022/05/28 02:56:09;;;;;;;;;;;;;;;;;;5098279;28;19943;-31
2022/05/28 02:58:35;;;;;;;;;;;;;;;;;;5098506;28;19913;-29
2022/05/28 03:01:01;;;;;;;;;;;;;;;;;;5098482;28;19912;-30
2022/05/28 03:03:28;;;;;;;;;;;;;;;;;;5098405;28;19952;-31
2022/05/28 03:05:55;;;;;;;;;;;;;;;;;;5098299;28;19943;-28
2022/05/28 03:08:21;;;;;;;;;;;;;;;;;;5098659;28;19915;-31
2022/05/28 03:10:47;;;;;;;;;;;;;;;;;;5098019;28;20367;-29
2022/05/28 03:13:13;;;;;;;;;;;;;;;;;;5097909;28;19919;-32
2022/05/28 03:15:39;;;;;;;;;;;;;;;;;;5098449;28;19912;-30
2022/05/28 03:18:05;;;;;;;;;;;;;;;;;;5097848;28;19908;-30
2022/05/28 03:20:31;;;;;;;;;;;;;;;;;;5098414;28;19912;-30
2022/05/28 03:22:57;;;;;;;;;;;;;;;;;;5097861;28;20353;-30
2022/05/28 03:25:23;;;;;;;;;;;;;;;;;;5097661;28;19912;-30
2022/05/28 03:27:49;;;;;;;;;;;;;;;;;;5097712;28;19912;-31
2022/05/28 03:30:15;;;;;;;;;;;;;;;;;;5098194;28;20418;-30
2022/05/28 03:32:41;;;;;;;;;;;;;;;;;;5097856;28;19989;-29
2022/05/28 03:35:07;;;;;;;;;;;;;;;;;;5097528;28;20304;-29
2022/05/28 03:37:33;;;;;;;;;;;;;;;;;;5098070;28;19912;-29
2022/05/28 03:39:59;;;;;;;;;;;;;;;;;;5097092;28;20355;-33
2022/05/28 03:42:25;;;;;;;;;;;;;;;;;;5097351;28;19908;-32
2022/05/28 03:44:51;;;;;;;;;;;;;;;;;;5097209;28;19912;-30
2022/05/28 03:47:17;;;;;;;;;;;;;;;;;;5097827;28;19926;-29
2022/05/28 03:49:43;;;;;;;;;;;;;;;;;;5097577;28;19951;-29
2022/05/28 03:52:09;;;;;;;;;;;;;;;;;;5097467;28;20259;-30
2022/05/28 03:54:35;;;;;;;;;;;;;;;;;;5097425;28;20266;-30
2022/05/28 03:57:01;;;;;;;;;;;;;;;;;;5097440;28;19915;-32
2022/05/28 03:59:27;;;;;;;;;;;;;;;;;;5097096;28;19912;-30
2022/05/28 04:01:53;;;;;;;;;;;;;;;;;;5097204;28;19943;-30
2022/05/28 04:04:20;;;;;;;;;;;;;;;;;;5097009;28;19923;-33
2022/05/28 04:06:46;;;;;;;;;;;;;;;;;;5097151;28;20020;-28
2022/05/28 04:09:12;;;;;;;;;;;;;;;;;;5096874;28;20367;-30
2022/05/28 04:11:38;;;;;;;;;;;;;;;;;;5097168;28;19931;-28
2022/05/28 04:14:04;;;;;;;;;;;;;;;;;;5096639;28;19912;-28
2022/05/28 04:16:30;;;;;;;;;;;;;;;;;;5096738;28;19908;-29
2022/05/28 04:18:56;;;;;;;;;;;;;;;;;;5097230;28;19916;-29
2022/05/28 04:21:22;;;;;;;;;;;;;;;;;;5096898;28;19927;-30
2022/05/28 04:23:48;;;;;;;;;;;;;;;;;;5096497;28;19915;-32
2022/05/28 04:26:14;;;;;;;;;;;;;;;;;;5096508;28;19938;-30
2022/05/28 04:28:40;;;;;;;;;;;;;;;;;;5096460;28;19919;-27
2022/05/28 04:31:06;;;;;;;;;;;;;;;;;;5097000;28;19922;-30
2022/05/28 04:33:32;;;;;;;;;;;;;;;;;;5096307;28;20070;-30
2022/05/28 04:35:58;;;;;;;;;;;;;;;;;;5096608;28;19966;-30
2022/05/28 04:38:24;;;;;;;;;;;;;;;;;;5096639;28;19919;-28
2022/05/28 04:40:50;;;;;;;;;;;;;;;;;;5096238;28;19918;-31
2022/05/28 04:43:16;;;;;;;;;;;;;;;;;;5096209;28;19908;-32
2022/05/28 04:45:42;;;;;;;;;;;;;;;;;;5095903;28;19924;-31
2022/05/28 04:48:08;;;;;;;;;;;;;;;;;;5096134;28;20335;-29
2022/05/28 04:50:34;;;;;;;;;;;;;;;;;;5095662;28;19922;-31
2022/05/28 04:53:00;;;;;;;;;;;;;;;;;;5096241;28;19908;-28
2022/05/28 04:55:26;;;;;;;;;;;;;;;;;;5096274;28;20220;-30
2022/05/28 04:57:52;;;;;;;;;;;;;;;;;;5095947;28;19995;-32
2022/05/28 05:00:18;;;;;;;;;;;;;;;;;;5095914;28;19919;-29
2022/05/28 05:02:44;;;;;;;;;;;;;;;;;;5095831;28;20357;-30
2022/05/28 05:05:10;;;;;;;;;;;;;;;;;;5095781;28;19912;-29
2022/05/28 05:07:36;;;;;;;;;;;;;;;;;;5096257;28;19912;-31
2022/05/28 05:10:02;;;;;;;;;;;;;;;;;;5095784;28;20140;-29
2022/05/28 05:12:27;;;;;;;;;;;;;;;;;;5095898;28;19969;-30
2022/05/28 05:14:55;;;;;;;;;;;;;;;;;;5095983;28;19908;-29
2022/05/28 05:17:21;;;;;;;;;;;;;;;;;;5096195;28;20004;-32
2022/05/28 05:19:47;;;;;;;;;;;;;;;;;;5095588;28;19916;-30
2022/05/28 05:22:13;;;;;;;;;;;;;;;;;;5096068;28;20041;-33
2022/05/28 05:24:39;;;;;;;;;;;;;;;;;;5095788;28;19913;-28
2022/05/28 05:27:05;;;;;;;;;;;;;;;;;;5095689;28;19912;-30
2022/05/28 05:29:31;;;;;;;;;;;;;;;;;;5095747;28;19999;-32
2022/05/28 05:31:57;;;;;;;;;;;;;;;;;;5095636;28;19922;-30
2022/05/28 05:34:23;;;;;;;;;;;;;;;;;;5095624;28;19912;-33
2022/05/28 05:36:49;;;;;;;;;;;;;;;;;;5095361;28;19950;-30
2022/05/28 05:39:15;;;;;;;;;;;;;;;;;;5095154;28;19912;-29
2022/05/28 05:41:41;;;;;;;;;;;;;;;;;;5095848;28;20314;-30
2022/05/28 05:44:07;;;;;;;;;;;;;;;;;;5095228;28;20278;-30
2022/05/28 05:46:33;;;;;;;;;;;;;;;;;;5094989;28;19920;-30
2022/05/28 05:48:59;;;;;;;;;;;;;;;;;;5095734;28;19912;-29
2022/05/28 05:51:25;;;;;;;;;;;;;;;;;;5095722;28;19908;-29
2022/05/28 05:53:51;;;;;;;;;;;;;;;;;;5095059;28;19923;-29
2022/05/28 05:56:17;;;;;;;;;;;;;;;;;;5095108;28;19908;-29
2022/05/28 05:58:43;;;;;;;;;;;;;;;;;;5095371;28;19912;-29
2022/05/28 06:01:09;;;;;;;;;;;;;;;;;;5095123;28;19916;-30
2022/05/28 06:03:35;;;;;;;;;;;;;;;;;;5098958;28;20289;-29
2022/05/28 06:06:01;;;;;;;;;;;;;;;;;;5099446;28;19924;-30
2022/05/28 06:08:27;;;;;;;;;;;;;;;;;;5099251;28;19962;-32
2022/05/28 06:10:53;;;;;;;;;;;;;;;;;;5099740;28;19912;-30
2022/05/28 06:13:19;;;;;;;;;;;;;;;;;;5099069;28;19912;-32
2022/05/28 06:15:45;;;;;;;;;;;;;;;;;;5099092;28;20430;-31
2022/05/28 06:18:11;;;;;;;;;;;;;;;;;;5099031;28;19923;-31
2022/05/28 06:20:37;;;;;;;;;;;;;;;;;;5098966;28;19912;-32
2022/05/28 06:23:03;;;;;;;;;;;;;;;;;;5098920;28;19912;-30
2022/05/28 06:25:29;;;;;;;;;;;;;;;;;;5098806;28;19912;-31
2022/05/28 06:27:55;;;;;;;;;;;;;;;;;;5098846;28;19908;-29
2022/05/28 06:30:22;;;;;;;;;;;;;;;;;;5099072;28;19911;-29
2022/05/28 06:32:48;;;;;;;;;;;;;;;;;;5098692;28;19924;-29
2022/05/28 06:35:14;;;;;;;;;;;;;;;;;;5098724;28;19923;-29
2022/05/28 06:37:40;;;;;;;;;;;;;;;;;;5099296;28;20327;-30
2022/05/28 06:40:06;;;;;;;;;;;;;;;;;;5098595;28;19919;-28
2022/05/28 06:42:32;;;;;;;;;;;;;;;;;;5098522;28;19915;-29
2022/05/28 06:44:59;;;;;;;;;;;;;;;;;;5098321;28;20007;-29
2022/05/28 06:47:25;;;;;;;;;;;;;;;;;;5098705;28;19912;-31
2022/05/28 06:52:36;;;;;;;;;;;;;;;;;;5098371;28;19919;-28
2022/05/28 06:55:02;;;;;;;;;;;;;;;;;;5098358;28;20347;-28
2022/05/28 06:57:28;;;;;;;;;;;;;;;;;;5098325;28;19953;-30
2022/05/28 06:59:54;;;;;;;;;;;;;;;;;;5098279;28;20299;-28
2022/05/28 07:02:20;;;;;;;;;;;;;;;;;;5098148;28;19943;-29
2022/05/28 07:04:46;;;;;;;;;;;;;;;;;;5098141;28;20308;-29
2022/05/28 07:07:12;;;;;;;;;;;;;;;;;;5098055;28;19920;-30
2022/05/28 07:09:37;;;;;;;;;;;;;;;;;;5098337;28;20243;-34
2022/05/28 07:12:03;;;;;;;;;;;;;;;;;;5098206;28;19916;-28
2022/05/28 07:14:29;;;;;;;;;;;;;;;;;;5097511;28;19908;-29
2022/05/28 07:16:55;;;;;;;;;;;;;;;;;;5097870;28;19923;-30
2022/05/28 07:19:21;;;;;;;;;;;;;;;;;;5097915;28;19920;-30
2022/05/28 07:21:47;;;;;;;;;;;;;;;;;;5097724;28;19947;-30
2022/05/28 07:24:13;;;;;;;;;;;;;;;;;;5097821;28;19947;-31
2022/05/28 07:26:40;;;;;;;;;;;;;;;;;;5098239;28;20003;-28
2022/05/28 07:29:08;;;;;;;;;;;;;;;;;;5097769;28;20203;-31
2022/05/28 07:31:34;;;;;;;;;;;;;;;;;;5097677;28;19912;-29
2022/05/28 07:34:00;;;;;;;;;;;;;;;;;;5097752;28;20003;-29
2022/05/28 07:36:26;;;;;;;;;;;;;;;;;;5097602;28;20327;-29
2022/05/28 07:38:52;;;;;;;;;;;;;;;;;;5097486;28;19916;-28
2022/05/28 07:41:18;;;;;;;;;;;;;;;;;;5097466;28;19962;-31
2022/05/28 07:43:44;;;;;;;;;;;;;;;;;;5097314;28;19935;-29
2022/05/28 07:46:10;;;;;;;;;;;;;;;;;;5097105;28;20339;-29
2022/05/28 07:48:36;;;;;;;;;;;;;;;;;;5097323;28;19919;-32
2022/05/28 07:51:02;;;;;;;;;;;;;;;;;;5097289;28;19916;-30
2022/05/28 07:53:28;;;;;;;;;;;;;;;;;;5097212;28;19912;-31
2022/05/28 07:55:54;;;;;;;;;;;;;;;;;;5097125;28;19961;-30
2022/05/28 07:58:20;;;;;;;;;;;;;;;;;;5097384;28;19912;-31
2022/05/28 08:00:46;;;;;;;;;;;;;;;;;;5097010;28;20284;-30
2022/05/28 08:03:12;;;;;;;;;;;;;;;;;;5096999;28;20262;-30
2022/05/28 08:05:38;;;;;;;;;;;;;;;;;;5097450;28;20007;-29
2022/05/28 08:08:04;;;;;;;;;;;;;;;;;;5096940;28;19919;-31
2022/05/28 08:10:30;;;;;;;;;;;;;;;;;;5096902;28;19919;-30
2022/05/28 08:12:56;;;;;;;;;;;;;;;;;;5096790;28;20238;-30
2022/05/28 08:15:22;;;;;;;;;;;;;;;;;;5097177;28;19924;-31
2022/05/28 08:17:48;;;;;;;;;;;;;;;;;;5096712;28;19911;-28
2022/05/28 08:20:14;;;;;;;;;;;;;;;;;;5096749;28;19915;-30
2022/05/28 08:25:25;;;;;;;;;;;;;;;;;;5095670;28;19919;-28
2022/05/28 08:27:50;;;;;;;;;;;;;;;;;;5096817;28;19912;-31
2022/05/28 08:30:16;;;;;;;;;;;;;;;;;;5097070;28;20348;-30
2022/05/28 08:32:42;;;;;;;;;;;;;;;;;;5096430;28;19919;-29
2022/05/28 08:35:09;;;;;;;;;;;;;;;;;;5096989;28;20209;-30
2022/05/28 08:37:34;;;;;;;;;;;;;;;;;;5096450;28;20309;-28
2022/05/28 08:40:00;;;;;;;;;;;;;;;;;;5096875;28;19913;-29
2022/05/28 08:42:26;;;;;;;;;;;;;;;;;;5096474;28;20254;-30
2022/05/28 08:44:52;;;;;;;;;;;;;;;;;;5096497;28;19926;-31
2022/05/28 08:47:18;;;;;;;;;;;;;;;;;;5096414;28;19908;-29
2022/05/28 08:49:44;;;;;;;;;;;;;;;;;;5096192;28;19912;-32
2022/05/28 08:52:10;;;;;;;;;;;;;;;;;;5096239;28;20343;-31
2022/05/28 08:54:36;;;;;;;;;;;;;;;;;;5096069;28;19915;-32
2022/05/28 08:57:02;;;;;;;;;;;;;;;;;;5096601;28;20395;-30
2022/05/28 08:59:28;;;;;;;;;;;;;;;;;;5095997;28;19997;-30
2022/05/28 09:01:54;;;;;;;;;;;;;;;;;;5095799;28;20354;-29
2022/05/28 09:04:20;;;;;;;;;;;;;;;;;;5095932;28;19914;-30
2022/05/28 09:06:49;;;;;;;;;;;;;;;;;;5095741;28;19916;-30
2022/05/28 09:09:15;;;;;;;;;;;;;;;;;;5095833;28;19942;-31
2022/05/28 09:11:41;;;;;;;;;;;;;;;;;;5095798;28;19912;-30
2022/05/28 09:14:07;;;;;;;;;;;;;;;;;;5095645;28;19999;-29
2022/05/28 09:16:33;;;;;;;;;;;;;;;;;;5095945;28;19916;-28
2022/05/28 09:18:59;;;;;;;;;;;;;;;;;;5095641;28;19919;-31
2022/05/28 09:21:25;;;;;;;;;;;;;;;;;;5095609;28;20267;-28
2022/05/28 09:23:51;;;;;;;;;;;;;;;;;;5095723;28;20361;-30
2022/05/28 09:26:17;;;;;;;;;;;;;;;;;;5095425;28;19912;-29
2022/05/28 09:28:43;;;;;;;;;;;;;;;;;;5096008;28;19931;-29
2022/05/28 09:31:09;;;;;;;;;;;;;;;;;;5095441;28;20346;-30
2022/05/28 09:33:35;;;;;;;;;;;;;;;;;;5095888;28;19920;-28
2022/05/28 09:36:01;;;;;;;;;;;;;;;;;;5095386;28;20258;-29
2022/05/28 09:38:27;;;;;;;;;;;;;;;;;;5095293;28;20246;-31
2022/05/28 09:40:53;;;;;;;;;;;;;;;;;;5095889;28;20003;-28
2022/05/28 09:43:19;;;;;;;;;;;;;;;;;;5095327;28;19912;-31
2022/05/28 09:45:45;;;;;;;;;;;;;;;;;;5095267;28;19920;-29
2022/05/28 09:48:13;;;;;;;;;;;;;;;;;;5094471;28;21290;-28
2022/05/28 09:50:39;;;;;;;;;;;;;;;;;;5095209;28;19914;-30
2022/05/28 09:55:50;;;;;;;;;;;;;;;;;;5095211;28;19923;-29
2022/05/28 09:58:16;;;;;;;;;;;;;;;;;;5095127;28;19904;-31
2022/05/28 10:00:42;;;;;;;;;;;;;;;;;;5095370;28;19912;-30
2022/05/28 10:05:52;;;;;;;;;;;;;;;;;;5095048;28;19973;-29
2022/05/28 10:08:18;;;;;;;;;;;;;;;;;;5095374;28;20285;-32
2022/05/28 10:10:44;;;;;;;;;;;;;;;;;;5095566;28;19918;-30
2022/05/28 10:13:10;;;;;;;;;;;;;;;;;;5094899;28;19911;-29
2022/05/28 10:15:36;;;;;;;;;;;;;;;;;;5094961;28;19923;-30
2022/05/28 10:18:02;;;;;;;;;;;;;;;;;;5095000;28;19912;-28
2022/05/28 10:20:28;;;;;;;;;;;;;;;;;;5094927;28;19987;-28
2022/05/28 10:22:54;;;;;;;;;;;;;;;;;;5094879;28;19912;-28
2022/05/28 10:25:20;;;;;;;;;;;;;;;;;;5094893;28;19912;-31
2022/05/28 10:27:46;;;;;;;;;;;;;;;;;;5095121;28;19916;-30
2022/05/28 10:30:12;;;;;;;;;;;;;;;;;;5095148;28;20346;-29
2022/05/28 10:32:38;;;;;;;;;;;;;;;;;;5094760;28;19916;-29
2022/05/28 10:35:04;;;;;;;;;;;;;;;;;;5094929;28;20232;-30
2022/05/28 10:37:30;;;;;;;;;;;;;;;;;;5095360;28;19912;-29
2022/05/28 10:39:56;;;;;;;;;;;;;;;;;;5094844;28;19912;-28
2022/05/28 10:42:22;;;;;;;;;;;;;;;;;;5094995;28;20002;-31
2022/05/28 10:44:48;;;;;;;;;;;;;;;;;;5094780;28;19916;-30
2022/05/28 10:47:14;;;;;;;;;;;;;;;;;;5094960;28;19962;-30
2022/05/28 10:49:40;;;;;;;;;;;;;;;;;;5096571;28;19912;-29
2022/05/28 10:52:06;;;;;;;;;;;;;;;;;;5098424;28;20065;-29
2022/05/28 10:54:32;;;;;;;;;;;;;;;;;;5098950;28;20053;-31
2022/05/28 10:57:01;;;;;;;;;;;;;;;;;;5099125;28;19944;-31
2022/05/28 10:59:27;;;;;;;;;;;;;;;;;;5098616;28;20251;-29
2022/05/28 11:01:53;;;;;;;;;;;;;;;;;;5098234;28;19916;-31
2022/05/28 11:04:18;;;;;;;;;;;;;;;;;;5098758;28;19916;-28
2022/05/28 11:06:44;;;;;;;;;;;;;;;;;;5098642;28;20248;-30
2022/05/28 11:09:11;;;;;;;;;;;;;;;;;;5098068;28;20255;-32
2022/05/28 11:11:37;;;;;;;;;;;;;;;;;;5098035;28;19934;-29
2022/05/28 11:14:03;;;;;;;;;;;;;;;;;;5097910;28;19969;-31
2022/05/28 11:16:29;;;;;;;;;;;;;;;;;;5098224;28;19908;-29
2022/05/28 11:18:55;;;;;;;;;;;;;;;;;;5097881;28;19947;-30
2022/05/28 11:21:21;;;;;;;;;;;;;;;;;;5098151;28;19919;-30
2022/05/28 11:23:47;;;;;;;;;;;;;;;;;;5097819;28;19923;-29
2022/05/28 11:26:13;;;;;;;;;;;;;;;;;;5097710;28;20255;-29
2022/05/28 11:28:39;;;;;;;;;;;;;;;;;;5097729;28;20307;-32
2022/05/28 11:31:05;;;;;;;;;;;;;;;;;;5097727;28;19931;-29
2022/05/28 11:33:31;;;;;;;;;;;;;;;;;;5097742;28;19996;-31
2022/05/28 11:35:57;;;;;;;;;;;;;;;;;;5098127;28;20320;-29
2022/05/28 11:38:23;;;;;;;;;;;;;;;;;;5097520;28;19916;-29
2022/05/28 11:40:49;;;;;;;;;;;;;;;;;;5097791;28;19912;-32
2022/05/28 11:43:15;;;;;;;;;;;;;;;;;;5097655;28;19923;-29
2022/05/28 11:45:41;;;;;;;;;;;;;;;;;;5097225;28;19959;-34
2022/05/28 11:48:07;;;;;;;;;;;;;;;;;;5097328;28;19950;-30
2022/05/28 11:53:18;;;;;;;;;;;;;;;;;;5097259;28;19985;-31
2022/05/28 11:55:44;;;;;;;;;;;;;;;;;;5097206;28;19916;-34
2022/05/28 11:58:10;;;;;;;;;;;;;;;;;;5097214;28;19908;-30
2022/05/28 12:00:36;;;;;;;;;;;;;;;;;;5097145;28;19912;-30
2022/05/28 12:03:02;;;;;;;;;;;;;;;;;;5098151;28;19916;-30
2022/05/28 12:05:30;;;;;;;;;;;;;;;;;;5097025;28;19984;-29
2022/05/28 12:07:56;;;;;;;;;;;;;;;;;;5097065;28;20444;-30
2022/05/28 12:10:22;;;;;;;;;;;;;;;;;;5098018;28;20265;-30
2022/05/28 12:12:48;;;;;;;;;;;;;;;;;;5096850;28;20076;-29
2022/05/28 12:15:14;;;;;;;;;;;;;;;;;;5096794;28;19961;-31
2022/05/28 12:17:40;;;;;;;;;;;;;;;;;;5096787;28;19908;-30
2022/05/28 12:20:06;;;;;;;;;;;;;;;;;;5097029;28;19912;-29
2022/05/28 12:22:32;;;;;;;;;;;;;;;;;;5097233;28;19919;-30
2022/05/28 12:24:58;;;;;;;;;;;;;;;;;;5096977;28;19912;-29
2022/05/28 12:27:26;;;;;;;;;;;;;;;;;;5096870;28;19916;-30
2022/05/28 12:29:55;;;;;;;;;;;;;;;;;;5096838;28;19919;-32
2022/05/28 12:32:22;;;;;;;;;;;;;;;;;;5096432;28;20007;-29
2022/05/28 12:34:48;;;;;;;;;;;;;;;;;;5096519;28;19916;-32
2022/05/28 12:37:14;;;;;;;;;;;;;;;;;;5096683;28;19935;-28
2022/05/28 12:39:40;;;;;;;;;;;;;;;;;;5096587;28;19920;-28
2022/05/28 12:42:06;;;;;;;;;;;;;;;;;;5096260;28;19908;-29
2022/05/28 12:44:32;;;;;;;;;;;;;;;;;;5096257;28;19998;-29
2022/05/28 12:46:59;;;;;;;;;;;;;;;;;;5095971;28;20024;-29
2022/05/28 12:49:25;;;;;;;;;;;;;;;;;;5096182;28;19912;-30
2022/05/28 12:51:51;;;;;;;;;;;;;;;;;;5096608;28;19938;-29
2022/05/28 12:54:17;;;;;;;;;;;;;;;;;;5096069;28;19912;-29
2022/05/28 12:56:43;;;;;;;;;;;;;;;;;;5096050;28;19923;-31
2022/05/28 12:59:09;;;;;;;;;;;;;;;;;;5096038;28;19908;-30
2022/05/28 13:01:35;;;;;;;;;;;;;;;;;;5095943;28;19969;-27
2022/05/28 13:04:01;;;;;;;;;;;;;;;;;;5095858;28;19912;-28
2022/05/28 13:06:27;;;;;;;;;;;;;;;;;;5096368;28;19916;-31
2022/05/28 13:08:54;;;;;;;;;;;;;;;;;;5095939;28;20243;-30
2022/05/28 13:11:20;;;;;;;;;;;;;;;;;;5095323;28;19912;-32
2022/05/28 13:13:46;;;;;;;;;;;;;;;;;;5095640;28;19912;-30
2022/05/28 13:16:12;;;;;;;;;;;;;;;;;;5095729;28;19919;-29
2022/05/28 13:18:38;;;;;;;;;;;;;;;;;;5095662;28;19982;-30
2022/05/28 13:21:04;;;;;;;;;;;;;;;;;;5095612;28;20308;-30
2022/05/28 13:23:30;;;;;;;;;;;;;;;;;;5095504;28;19912;-30
2022/05/28 13:25:56;;;;;;;;;;;;;;;;;;5095366;28;19927;-31
2022/05/28 13:28:22;;;;;;;;;;;;;;;;;;5095560;28;20271;-30
2022/05/28 13:30:48;;;;;;;;;;;;;;;;;;5095482;28;19916;-30
2022/05/28 13:33:14;;;;;;;;;;;;;;;;;;5095485;28;19927;-29
2022/05/28 13:35:40;;;;;;;;;;;;;;;;;;5095407;28;19984;-30
2022/05/28 13:38:06;;;;;;;;;;;;;;;;;;5095412;28;20300;-30
2022/05/28 13:40:32;;;;;;;;;;;;;;;;;;5095286;28;20437;-29
2022/05/28 13:42:58;;;;;;;;;;;;;;;;;;5095257;28;19969;-29
2022/05/28 13:45:24;;;;;;;;;;;;;;;;;;5095457;28;19924;-28
2022/05/28 13:47:50;;;;;;;;;;;;;;;;;;5095191;28;19912;-31
2022/05/28 13:50:16;;;;;;;;;;;;;;;;;;5095250;28;20371;-30
2022/05/28 13:52:41;;;;;;;;;;;;;;;;;;5095431;28;19912;-28
2022/05/28 13:55:07;;;;;;;;;;;;;;;;;;5095192;28;20359;-28
2022/05/28 13:57:33;;;;;;;;;;;;;;;;;;5095196;28;19915;-31
2022/05/28 13:59:59;;;;;;;;;;;;;;;;;;5095734;28;19916;-31
2022/05/28 14:02:25;;;;;;;;;;;;;;;;;;5095656;28;19958;-30
2022/05/28 14:04:51;;;;;;;;;;;;;;;;;;5095116;28;20251;-32
2022/05/28 14:07:17;;;;;;;;;;;;;;;;;;5095287;28;19955;-28
2022/05/28 14:09:43;;;;;;;;;;;;;;;;;;5095607;28;19920;-28
2022/05/28 14:12:10;;;;;;;;;;;;;;;;;;5095524;28;19998;-30
2022/05/28 14:14:36;;;;;;;;;;;;;;;;;;5095015;28;19913;-29
2022/05/28 14:17:02;;;;;;;;;;;;;;;;;;5095020;28;19912;-29
2022/05/28 14:19:28;;;;;;;;;;;;;;;;;;5094990;28;19954;-31
2022/05/28 14:21:54;;;;;;;;;;;;;;;;;;5094878;28;19959;-33
2022/05/28 14:24:20;;;;;;;;;;;;;;;;;;5098085;28;19932;-32
2022/05/28 14:26:46;;;;;;;;;;;;;;;;;;5099172;28;20258;-29
2022/05/28 14:29:12;;;;;;;;;;;;;;;;;;5099229;28;19915;-29
2022/05/28 14:31:38;;;;;;;;;;;;;;;;;;5098908;28;19973;-32
2022/05/28 14:34:04;;;;;;;;;;;;;;;;;;5098703;28;19919;-28
2022/05/28 14:36:30;;;;;;;;;;;;;;;;;;5098750;28;19908;-29
2022/05/28 14:38:56;;;;;;;;;;;;;;;;;;5099257;28;19923;-31
2022/05/28 14:41:22;;;;;;;;;;;;;;;;;;5099263;28;20315;-31
2022/05/28 14:43:48;;;;;;;;;;;;;;;;;;5098554;28;19923;-30
2022/05/28 14:46:14;;;;;;;;;;;;;;;;;;5098495;28;19920;-30
2022/05/28 14:48:40;;;;;;;;;;;;;;;;;;5098496;28;20310;-30
2022/05/28 14:51:06;;;;;;;;;;;;;;;;;;5098509;28;19918;-30
2022/05/28 14:53:35;;;;;;;;;;;;;;;;;;5098370;28;19927;-30
2022/05/28 14:56:01;;;;;;;;;;;;;;;;;;5098374;28;19908;-30
2022/05/28 14:58:27;;;;;;;;;;;;;;;;;;5098578;28;19923;-29
2022/05/28 15:00:53;;;;;;;;;;;;;;;;;;5098277;28;19908;-29
2022/05/28 15:03:19;;;;;;;;;;;;;;;;;;5098226;28;19912;-30
2022/05/28 15:05:45;;;;;;;;;;;;;;;;;;5098380;28;20282;-33
2022/05/28 15:08:11;;;;;;;;;;;;;;;;;;5098172;28;19908;-30
2022/05/28 15:10:37;;;;;;;;;;;;;;;;;;5098357;28;20308;-30
2022/05/28 15:13:03;;;;;;;;;;;;;;;;;;5098279;28;19908;-30
2022/05/28 15:15:29;;;;;;;;;;;;;;;;;;5097963;28;19919;-28
2022/05/28 15:17:55;;;;;;;;;;;;;;;;;;5097969;28;19916;-30
2022/05/28 15:20:21;;;;;;;;;;;;;;;;;;5097937;28;19912;-28
2022/05/28 15:22:47;;;;;;;;;;;;;;;;;;5097829;28;20372;-29
2022/05/28 15:25:13;;;;;;;;;;;;;;;;;;5097794;28;19919;-30
2022/05/28 15:27:40;;;;;;;;;;;;;;;;;;5097697;28;19912;-29
2022/05/28 15:30:06;;;;;;;;;;;;;;;;;;5098018;28;19912;-29
2022/05/28 15:32:32;;;;;;;;;;;;;;;;;;5097898;28;19919;-32
2022/05/28 15:35:00;;;;;;;;;;;;;;;;;;5097659;28;19912;-30
2022/05/28 15:40:10;;;;;;;;;;;;;;;;;;5097605;28;19922;-31
2022/05/28 15:42:36;;;;;;;;;;;;;;;;;;5097633;28;20003;-31
2022/05/28 15:45:02;;;;;;;;;;;;;;;;;;5097247;28;19978;-30
2022/05/28 15:47:28;;;;;;;;;;;;;;;;;;5097353;28;20305;-31
2022/05/28 15:49:55;;;;;;;;;;;;;;;;;;5097375;28;20003;-32
2022/05/28 15:52:21;;;;;;;;;;;;;;;;;;5097741;28;19916;-28
2022/05/28 15:54:47;;;;;;;;;;;;;;;;;;5097815;28;19995;-30
2022/05/28 15:57:13;;;;;;;;;;;;;;;;;;5097264;28;19947;-31
2022/05/28 15:59:39;;;;;;;;;;;;;;;;;;5097186;28;19912;-30
2022/05/28 16:02:07;;;;;;;;;;;;;;;;;;5097067;28;19920;-30
2022/05/28 16:04:33;;;;;;;;;;;;;;;;;;5097727;28;20242;-28
2022/05/28 16:07:00;;;;;;;;;;;;;;;;;;5097215;28;19927;-31
2022/05/28 16:09:27;;;;;;;;;;;;;;;;;;5097258;28;19923;-28
2022/05/28 16:11:53;;;;;;;;;;;;;;;;;;5096950;28;20008;-29
2022/05/28 16:14:19;;;;;;;;;;;;;;;;;;5097150;28;20347;-31
2022/05/28 16:16:45;;;;;;;;;;;;;;;;;;5096852;28;19948;-34
2022/05/28 16:19:11;;;;;;;;;;;;;;;;;;5097337;28;19919;-28
2022/05/28 16:21:37;;;;;;;;;;;;;;;;;;5096748;28;20411;-29
2022/05/28 16:24:03;;;;;;;;;;;;;;;;;;5096628;28;20346;-30
2022/05/28 16:26:29;;;;;;;;;;;;;;;;;;5097102;28;19920;-29
2022/05/28 16:28:55;;;;;;;;;;;;;;;;;;5096608;28;19908;-29
2022/05/28 16:31:21;;;;;;;;;;;;;;;;;;5096819;28;19922;-30
2022/05/28 16:33:47;;;;;;;;;;;;;;;;;;5096508;28;20327;-29
2022/05/28 16:36:13;;;;;;;;;;;;;;;;;;5096452;28;19916;-29
2022/05/28 16:38:39;;;;;;;;;;;;;;;;;;5096712;28;19909;-29
2022/05/28 16:41:05;;;;;;;;;;;;;;;;;;5096331;28;19912;-29
2022/05/28 16:43:31;;;;;;;;;;;;;;;;;;5096281;28;20061;-31
2022/05/28 16:45:57;;;;;;;;;;;;;;;;;;5095883;28;19920;-29
2022/05/28 16:48:22;;;;;;;;;;;;;;;;;;5095963;28;19923;-30
2022/05/28 16:50:48;;;;;;;;;;;;;;;;;;5096180;28;19916;-29
2022/05/28 16:53:14;;;;;;;;;;;;;;;;;;5096360;28;19982;-32